sensor_id;sensor_type;location;lat;lon;timestamp;P1;durP1;ratioP1;P2;durP2;ratioP2
25207;SDS011;13153;52.316;21.166;2022-11-11T00:01:00;36.47;;;21.95;;
25207;SDS011;13153;52.316;21.166;2022-11-11T00:03:38;36.67;;;22.25;;
25207;SDS011;13153;52.316;21.166;2022-11-11T00:06:05;40.38;;;22.63;;
25207;SDS011;13153;52.316;21.166;2022-11-11T00:08:37;41.00;;;22.52;;
25207;SDS011;13153;52.316;21.166;2022-11-11T00:11:04;35.47;;;21.73;;
25207;SDS011;13153;52.316;21.166;2022-11-11T00:13:33;41.40;;;22.00;;
25207;SDS011;13153;52.316;21.166;2022-11-11T00:16:06;37.47;;;21.80;;
25207;SDS011;13153;52.316;21.166;2022-11-11T00:18:44;36.53;;;21.13;;
25207;SDS011;13153;52.316;21.166;2022-11-11T00:21:29;36.05;;;20.55;;
25207;SDS011;13153;52.316;21.166;2022-11-11T00:24:12;35.42;;;20.63;;
25207;SDS011;13153;52.316;21.166;2022-11-11T00:27:11;34.90;;;20.35;;
25207;SDS011;13153;52.316;21.166;2022-11-11T00:29:38;34.83;;;19.48;;
25207;SDS011;13153;52.316;21.166;2022-11-11T00:32:05;32.15;;;19.30;;
25207;SDS011;13153;52.316;21.166;2022-11-11T00:34:50;31.33;;;19.10;;
25207;SDS011;13153;52.316;21.166;2022-11-11T00:37:37;35.30;;;18.95;;
25207;SDS011;13153;52.316;21.166;2022-11-11T00:40:04;31.52;;;18.60;;
25207;SDS011;13153;52.316;21.166;2022-11-11T00:42:31;33.42;;;18.73;;
25207;SDS011;13153;52.316;21.166;2022-11-11T00:44:57;32.38;;;19.40;;
25207;SDS011;13153;52.316;21.166;2022-11-11T00:47:22;32.72;;;18.35;;
25207;SDS011;13153;52.316;21.166;2022-11-11T00:50:28;34.20;;;18.85;;
25207;SDS011;13153;52.316;21.166;2022-11-11T00:53:14;34.45;;;18.17;;
25207;SDS011;13153;52.316;21.166;2022-11-11T00:55:45;37.53;;;19.80;;
25207;SDS011;13153;52.316;21.166;2022-11-11T00:58:11;34.42;;;19.27;;
25207;SDS011;13153;52.316;21.166;2022-11-11T01:00:37;36.78;;;19.73;;
25207;SDS011;13153;52.316;21.166;2022-11-11T01:03:03;39.53;;;20.67;;
25207;SDS011;13153;52.316;21.166;2022-11-11T01:05:29;38.65;;;19.23;;
25207;SDS011;13153;52.316;21.166;2022-11-11T01:07:54;43.78;;;20.52;;
25207;SDS011;13153;52.316;21.166;2022-11-11T01:10:20;38.58;;;21.40;;
25207;SDS011;13153;52.316;21.166;2022-11-11T01:13:12;44.40;;;22.27;;
25207;SDS011;13153;52.316;21.166;2022-11-11T01:15:45;45.75;;;22.95;;
25207;SDS011;13153;52.316;21.166;2022-11-11T01:18:14;49.60;;;25.48;;
25207;SDS011;13153;52.316;21.166;2022-11-11T01:20:43;47.30;;;23.77;;
25207;SDS011;13153;52.316;21.166;2022-11-11T01:23:10;45.20;;;23.08;;
25207;SDS011;13153;52.316;21.166;2022-11-11T01:25:39;42.35;;;21.90;;
25207;SDS011;13153;52.316;21.166;2022-11-11T01:28:07;37.53;;;22.60;;
25207;SDS011;13153;52.316;21.166;2022-11-11T01:30:34;37.15;;;21.90;;
25207;SDS011;13153;52.316;21.166;2022-11-11T01:33:00;41.30;;;21.23;;
25207;SDS011;13153;52.316;21.166;2022-11-11T01:35:27;38.33;;;21.13;;
25207;SDS011;13153;52.316;21.166;2022-11-11T01:37:53;34.28;;;19.65;;
25207;SDS011;13153;52.316;21.166;2022-11-11T01:40:20;37.45;;;20.67;;
25207;SDS011;13153;52.316;21.166;2022-11-11T01:43:20;34.67;;;20.25;;
25207;SDS011;13153;52.316;21.166;2022-11-11T01:48:16;35.95;;;20.20;;
25207;SDS011;13153;52.316;21.166;2022-11-11T01:54:32;34.50;;;19.52;;
25207;SDS011;13153;52.316;21.166;2022-11-11T01:57:48;38.70;;;19.17;;
25207;SDS011;13153;52.316;21.166;2022-11-11T02:00:08;39.28;;;19.33;;
25207;SDS011;13153;52.316;21.166;2022-11-11T02:02:38;34.58;;;19.48;;
25207;SDS011;13153;52.316;21.166;2022-11-11T02:05:17;36.83;;;20.50;;
25207;SDS011;13153;52.316;21.166;2022-11-11T02:08:04;32.65;;;19.20;;
25207;SDS011;13153;52.316;21.166;2022-11-11T02:10:35;34.75;;;19.08;;
25207;SDS011;13153;52.316;21.166;2022-11-11T02:13:13;38.30;;;19.92;;
25207;SDS011;13153;52.316;21.166;2022-11-11T02:15:58;33.75;;;19.23;;
25207;SDS011;13153;52.316;21.166;2022-11-11T02:18:25;37.03;;;19.40;;
25207;SDS011;13153;52.316;21.166;2022-11-11T02:20:52;36.97;;;20.65;;
25207;SDS011;13153;52.316;21.166;2022-11-11T02:23:23;37.03;;;19.73;;
25207;SDS011;13153;52.316;21.166;2022-11-11T02:26:06;33.72;;;19.90;;
25207;SDS011;13153;52.316;21.166;2022-11-11T02:28:35;33.22;;;18.55;;
25207;SDS011;13153;52.316;21.166;2022-11-11T02:31:02;38.53;;;19.38;;
25207;SDS011;13153;52.316;21.166;2022-11-11T02:33:28;33.60;;;19.25;;
25207;SDS011;13153;52.316;21.166;2022-11-11T02:35:54;32.65;;;18.75;;
25207;SDS011;13153;52.316;21.166;2022-11-11T02:38:26;28.90;;;18.27;;
25207;SDS011;13153;52.316;21.166;2022-11-11T02:40:54;35.72;;;19.15;;
25207;SDS011;13153;52.316;21.166;2022-11-11T02:43:38;30.03;;;18.60;;
25207;SDS011;13153;52.316;21.166;2022-11-11T02:46:04;37.25;;;19.35;;
25207;SDS011;13153;52.316;21.166;2022-11-11T02:48:31;32.55;;;18.92;;
25207;SDS011;13153;52.316;21.166;2022-11-11T02:50:57;35.75;;;18.10;;
25207;SDS011;13153;52.316;21.166;2022-11-11T02:53:23;33.00;;;18.67;;
25207;SDS011;13153;52.316;21.166;2022-11-11T02:55:49;39.22;;;18.45;;
25207;SDS011;13153;52.316;21.166;2022-11-11T02:58:15;34.58;;;18.33;;
25207;SDS011;13153;52.316;21.166;2022-11-11T03:00:41;32.00;;;18.05;;
25207;SDS011;13153;52.316;21.166;2022-11-11T03:03:08;36.83;;;18.33;;
25207;SDS011;13153;52.316;21.166;2022-11-11T03:05:35;36.83;;;19.00;;
25207;SDS011;13153;52.316;21.166;2022-11-11T03:08:01;34.35;;;18.10;;
25207;SDS011;13153;52.316;21.166;2022-11-11T03:10:28;31.65;;;18.15;;
25207;SDS011;13153;52.316;21.166;2022-11-11T03:12:54;35.40;;;18.77;;
25207;SDS011;13153;52.316;21.166;2022-11-11T03:15:20;32.42;;;18.38;;
25207;SDS011;13153;52.316;21.166;2022-11-11T03:17:47;35.25;;;18.52;;
25207;SDS011;13153;52.316;21.166;2022-11-11T03:20:14;39.33;;;19.33;;
25207;SDS011;13153;52.316;21.166;2022-11-11T03:23:04;32.47;;;18.35;;
25207;SDS011;13153;52.316;21.166;2022-11-11T03:25:39;34.95;;;17.48;;
25207;SDS011;13153;52.316;21.166;2022-11-11T03:28:09;37.97;;;18.77;;
25207;SDS011;13153;52.316;21.166;2022-11-11T03:30:41;32.20;;;19.17;;
25207;SDS011;13153;52.316;21.166;2022-11-11T03:33:10;36.50;;;19.13;;
25207;SDS011;13153;52.316;21.166;2022-11-11T03:35:37;34.50;;;18.75;;
25207;SDS011;13153;52.316;21.166;2022-11-11T03:38:04;35.50;;;18.67;;
25207;SDS011;13153;52.316;21.166;2022-11-11T03:40:49;33.10;;;18.70;;
25207;SDS011;13153;52.316;21.166;2022-11-11T03:43:21;37.05;;;18.98;;
25207;SDS011;13153;52.316;21.166;2022-11-11T03:45:54;36.78;;;18.15;;
25207;SDS011;13153;52.316;21.166;2022-11-11T03:48:23;33.50;;;18.10;;
25207;SDS011;13153;52.316;21.166;2022-11-11T03:50:52;32.85;;;16.95;;
25207;SDS011;13153;52.316;21.166;2022-11-11T03:53:19;37.47;;;17.98;;
25207;SDS011;13153;52.316;21.166;2022-11-11T03:55:46;33.35;;;17.45;;
25207;SDS011;13153;52.316;21.166;2022-11-11T03:58:15;35.05;;;17.13;;
25207;SDS011;13153;52.316;21.166;2022-11-11T04:00:41;34.03;;;17.75;;
25207;SDS011;13153;52.316;21.166;2022-11-11T04:03:09;34.30;;;17.75;;
25207;SDS011;13153;52.316;21.166;2022-11-11T04:05:55;33.00;;;17.10;;
25207;SDS011;13153;52.316;21.166;2022-11-11T04:08:42;32.80;;;16.95;;
25207;SDS011;13153;52.316;21.166;2022-11-11T04:14:00;29.80;;;16.55;;
25207;SDS011;13153;52.316;21.166;2022-11-11T04:16:50;32.63;;;17.17;;
25207;SDS011;13153;52.316;21.166;2022-11-11T04:19:15;27.38;;;15.35;;
25207;SDS011;13153;52.316;21.166;2022-11-11T04:22:00;29.73;;;16.17;;
25207;SDS011;13153;52.316;21.166;2022-11-11T04:24:26;27.95;;;15.10;;
25207;SDS011;13153;52.316;21.166;2022-11-11T04:27:11;28.35;;;15.77;;
25207;SDS011;13153;52.316;21.166;2022-11-11T04:29:40;25.15;;;15.30;;
25207;SDS011;13153;52.316;21.166;2022-11-11T04:32:08;31.83;;;16.40;;
25207;SDS011;13153;52.316;21.166;2022-11-11T04:34:59;31.02;;;15.98;;
25207;SDS011;13153;52.316;21.166;2022-11-11T04:37:31;31.05;;;14.95;;
25207;SDS011;13153;52.316;21.166;2022-11-11T04:40:00;32.13;;;15.13;;
25207;SDS011;13153;52.316;21.166;2022-11-11T04:42:44;32.67;;;16.08;;
25207;SDS011;13153;52.316;21.166;2022-11-11T04:45:11;28.27;;;14.98;;
25207;SDS011;13153;52.316;21.166;2022-11-11T04:50:35;30.85;;;14.60;;
25207;SDS011;13153;52.316;21.166;2022-11-11T04:53:04;33.05;;;15.10;;
25207;SDS011;13153;52.316;21.166;2022-11-11T04:55:34;31.75;;;15.68;;
25207;SDS011;13153;52.316;21.166;2022-11-11T04:58:19;31.43;;;16.37;;
25207;SDS011;13153;52.316;21.166;2022-11-11T05:00:47;33.00;;;15.57;;
25207;SDS011;13153;52.316;21.166;2022-11-11T05:03:15;33.05;;;15.30;;
25207;SDS011;13153;52.316;21.166;2022-11-11T05:11:29;24.50;;;13.43;;
25207;SDS011;13153;52.316;21.166;2022-11-11T05:13:58;28.25;;;14.20;;
25207;SDS011;13153;52.316;21.166;2022-11-11T05:16:52;25.17;;;14.18;;
25207;SDS011;13153;52.316;21.166;2022-11-11T05:19:39;30.08;;;14.43;;
25207;SDS011;13153;52.316;21.166;2022-11-11T05:22:29;25.60;;;14.70;;
25207;SDS011;13153;52.316;21.166;2022-11-11T05:24:57;27.88;;;14.18;;
25207;SDS011;13153;52.316;21.166;2022-11-11T05:27:41;28.55;;;13.77;;
25207;SDS011;13153;52.316;21.166;2022-11-11T05:30:08;29.15;;;14.43;;
25207;SDS011;13153;52.316;21.166;2022-11-11T05:32:37;29.10;;;13.43;;
25207;SDS011;13153;52.316;21.166;2022-11-11T05:35:03;38.80;;;20.98;;
25207;SDS011;13153;52.316;21.166;2022-11-11T05:37:30;27.23;;;14.60;;
25207;SDS011;13153;52.316;21.166;2022-11-11T05:39:56;29.42;;;13.25;;
25207;SDS011;13153;52.316;21.166;2022-11-11T05:42:21;28.60;;;13.23;;
25207;SDS011;13153;52.316;21.166;2022-11-11T05:44:47;27.30;;;13.90;;
25207;SDS011;13153;52.316;21.166;2022-11-11T05:47:13;26.70;;;13.27;;
25207;SDS011;13153;52.316;21.166;2022-11-11T05:49:39;31.42;;;13.75;;
25207;SDS011;13153;52.316;21.166;2022-11-11T05:52:05;26.75;;;13.30;;
25207;SDS011;13153;52.316;21.166;2022-11-11T05:54:33;26.65;;;13.20;;
25207;SDS011;13153;52.316;21.166;2022-11-11T05:56:59;23.63;;;12.80;;
25207;SDS011;13153;52.316;21.166;2022-11-11T05:59:25;23.48;;;12.93;;
25207;SDS011;13153;52.316;21.166;2022-11-11T06:01:51;22.73;;;12.68;;
25207;SDS011;13153;52.316;21.166;2022-11-11T06:04:16;27.40;;;12.90;;
25207;SDS011;13153;52.316;21.166;2022-11-11T06:06:42;24.02;;;12.63;;
25207;SDS011;13153;52.316;21.166;2022-11-11T06:09:08;25.52;;;12.73;;
25207;SDS011;13153;52.316;21.166;2022-11-11T06:11:34;24.73;;;12.57;;
25207;SDS011;13153;52.316;21.166;2022-11-11T06:14:00;25.20;;;12.95;;
25207;SDS011;13153;52.316;21.166;2022-11-11T06:16:26;25.27;;;12.75;;
25207;SDS011;13153;52.316;21.166;2022-11-11T06:18:52;22.77;;;12.18;;
25207;SDS011;13153;52.316;21.166;2022-11-11T06:21:18;29.88;;;13.20;;
25207;SDS011;13153;52.316;21.166;2022-11-11T06:23:44;25.15;;;12.80;;
25207;SDS011;13153;52.316;21.166;2022-11-11T06:26:10;24.13;;;11.80;;
25207;SDS011;13153;52.316;21.166;2022-11-11T06:28:41;25.77;;;13.40;;
25207;SDS011;13153;52.316;21.166;2022-11-11T06:31:12;26.45;;;12.85;;
25207;SDS011;13153;52.316;21.166;2022-11-11T06:33:41;24.63;;;12.10;;
25207;SDS011;13153;52.316;21.166;2022-11-11T06:36:08;23.15;;;12.32;;
25207;SDS011;13153;52.316;21.166;2022-11-11T06:38:37;23.20;;;11.90;;
25207;SDS011;13153;52.316;21.166;2022-11-11T06:41:04;27.30;;;12.30;;
25207;SDS011;13153;52.316;21.166;2022-11-11T06:43:30;25.95;;;12.70;;
25207;SDS011;13153;52.316;21.166;2022-11-11T06:45:56;25.45;;;12.55;;
25207;SDS011;13153;52.316;21.166;2022-11-11T06:48:23;28.38;;;12.00;;
25207;SDS011;13153;52.316;21.166;2022-11-11T06:50:51;20.95;;;10.82;;
25207;SDS011;13153;52.316;21.166;2022-11-11T06:53:18;26.83;;;13.00;;
25207;SDS011;13153;52.316;21.166;2022-11-11T06:55:46;24.65;;;13.95;;
25207;SDS011;13153;52.316;21.166;2022-11-11T06:58:14;23.70;;;12.10;;
25207;SDS011;13153;52.316;21.166;2022-11-11T07:00:43;24.55;;;11.82;;
25207;SDS011;13153;52.316;21.166;2022-11-11T07:03:12;23.77;;;11.95;;
25207;SDS011;13153;52.316;21.166;2022-11-11T07:05:41;27.17;;;11.48;;
25207;SDS011;13153;52.316;21.166;2022-11-11T07:08:09;26.65;;;11.70;;
25207;SDS011;13153;52.316;21.166;2022-11-11T07:10:39;28.67;;;15.00;;
25207;SDS011;13153;52.316;21.166;2022-11-11T07:13:09;26.42;;;12.25;;
25207;SDS011;13153;52.316;21.166;2022-11-11T07:15:35;24.63;;;11.20;;
25207;SDS011;13153;52.316;21.166;2022-11-11T07:18:01;23.90;;;11.35;;
25207;SDS011;13153;52.316;21.166;2022-11-11T07:20:28;20.73;;;11.60;;
25207;SDS011;13153;52.316;21.166;2022-11-11T07:22:54;22.90;;;10.80;;
25207;SDS011;13153;52.316;21.166;2022-11-11T07:25:20;19.77;;;10.98;;
25207;SDS011;13153;52.316;21.166;2022-11-11T07:27:47;24.83;;;11.43;;
25207;SDS011;13153;52.316;21.166;2022-11-11T07:30:13;23.45;;;11.82;;
25207;SDS011;13153;52.316;21.166;2022-11-11T07:32:45;21.90;;;11.45;;
25207;SDS011;13153;52.316;21.166;2022-11-11T07:35:13;22.10;;;11.20;;
25207;SDS011;13153;52.316;21.166;2022-11-11T07:37:40;26.45;;;12.25;;
25207;SDS011;13153;52.316;21.166;2022-11-11T07:40:06;25.40;;;12.55;;
25207;SDS011;13153;52.316;21.166;2022-11-11T07:42:35;25.67;;;12.43;;
25207;SDS011;13153;52.316;21.166;2022-11-11T07:45:05;26.73;;;12.15;;
25207;SDS011;13153;52.316;21.166;2022-11-11T07:47:33;24.20;;;12.98;;
25207;SDS011;13153;52.316;21.166;2022-11-11T07:49:59;26.77;;;12.32;;
25207;SDS011;13153;52.316;21.166;2022-11-11T07:52:26;23.65;;;11.90;;
25207;SDS011;13153;52.316;21.166;2022-11-11T07:54:51;29.25;;;12.02;;
25207;SDS011;13153;52.316;21.166;2022-11-11T07:57:17;25.88;;;13.32;;
25207;SDS011;13153;52.316;21.166;2022-11-11T07:59:43;22.52;;;11.60;;
25207;SDS011;13153;52.316;21.166;2022-11-11T08:02:12;24.42;;;12.35;;
25207;SDS011;13153;52.316;21.166;2022-11-11T08:04:38;22.58;;;11.70;;
25207;SDS011;13153;52.316;21.166;2022-11-11T08:07:04;22.95;;;11.93;;
25207;SDS011;13153;52.316;21.166;2022-11-11T08:09:31;23.73;;;11.27;;
25207;SDS011;13153;52.316;21.166;2022-11-11T08:11:57;26.55;;;12.20;;
25207;SDS011;13153;52.316;21.166;2022-11-11T08:14:41;19.50;;;10.82;;
25207;SDS011;13153;52.316;21.166;2022-11-11T08:17:07;22.65;;;11.20;;
25207;SDS011;13153;52.316;21.166;2022-11-11T08:19:33;24.33;;;11.25;;
25207;SDS011;13153;52.316;21.166;2022-11-11T08:21:58;25.17;;;11.30;;
25207;SDS011;13153;52.316;21.166;2022-11-11T08:24:24;23.38;;;11.70;;
25207;SDS011;13153;52.316;21.166;2022-11-11T08:26:50;26.83;;;11.63;;
25207;SDS011;13153;52.316;21.166;2022-11-11T08:29:17;30.38;;;13.13;;
25207;SDS011;13153;52.316;21.166;2022-11-11T08:31:43;21.83;;;12.07;;
25207;SDS011;13153;52.316;21.166;2022-11-11T08:34:09;25.33;;;10.77;;
25207;SDS011;13153;52.316;21.166;2022-11-11T08:36:36;20.05;;;10.60;;
25207;SDS011;13153;52.316;21.166;2022-11-11T08:39:02;23.13;;;11.48;;
25207;SDS011;13153;52.316;21.166;2022-11-11T08:41:28;27.52;;;10.82;;
25207;SDS011;13153;52.316;21.166;2022-11-11T08:43:54;20.88;;;10.77;;
25207;SDS011;13153;52.316;21.166;2022-11-11T08:46:20;24.80;;;10.35;;
25207;SDS011;13153;52.316;21.166;2022-11-11T08:48:47;21.52;;;9.50;;
25207;SDS011;13153;52.316;21.166;2022-11-11T08:51:13;19.20;;;10.25;;
25207;SDS011;13153;52.316;21.166;2022-11-11T08:53:40;22.25;;;10.00;;
25207;SDS011;13153;52.316;21.166;2022-11-11T08:56:06;21.50;;;10.88;;
25207;SDS011;13153;52.316;21.166;2022-11-11T08:58:32;20.85;;;10.00;;
25207;SDS011;13153;52.316;21.166;2022-11-11T09:00:59;20.70;;;10.27;;
25207;SDS011;13153;52.316;21.166;2022-11-11T09:03:25;24.08;;;10.18;;
25207;SDS011;13153;52.316;21.166;2022-11-11T09:05:51;20.42;;;10.13;;
25207;SDS011;13153;52.316;21.166;2022-11-11T09:08:17;24.30;;;10.63;;
25207;SDS011;13153;52.316;21.166;2022-11-11T09:10:43;21.40;;;10.38;;
25207;SDS011;13153;52.316;21.166;2022-11-11T09:13:09;24.30;;;11.05;;
25207;SDS011;13153;52.316;21.166;2022-11-11T09:15:35;23.90;;;10.93;;
25207;SDS011;13153;52.316;21.166;2022-11-11T09:18:01;28.30;;;11.85;;
25207;SDS011;13153;52.316;21.166;2022-11-11T09:20:27;27.60;;;13.95;;
25207;SDS011;13153;52.316;21.166;2022-11-11T09:22:53;23.60;;;12.73;;
25207;SDS011;13153;52.316;21.166;2022-11-11T09:25:19;26.80;;;10.98;;
25207;SDS011;13153;52.316;21.166;2022-11-11T09:27:53;18.63;;;10.30;;
25207;SDS011;13153;52.316;21.166;2022-11-11T09:30:24;25.08;;;10.90;;
25207;SDS011;13153;52.316;21.166;2022-11-11T09:32:52;20.70;;;10.40;;
25207;SDS011;13153;52.316;21.166;2022-11-11T09:35:18;24.75;;;11.18;;
25207;SDS011;13153;52.316;21.166;2022-11-11T09:38:00;23.83;;;10.00;;
25207;SDS011;13153;52.316;21.166;2022-11-11T09:40:32;22.20;;;10.73;;
25207;SDS011;13153;52.316;21.166;2022-11-11T09:43:27;18.75;;;9.63;;
25207;SDS011;13153;52.316;21.166;2022-11-11T09:49:09;19.95;;;9.32;;
25207;SDS011;13153;52.316;21.166;2022-11-11T09:57:05;22.30;;;9.18;;
25207;SDS011;13153;52.316;21.166;2022-11-11T09:59:45;19.33;;;9.00;;
25207;SDS011;13153;52.316;21.166;2022-11-11T10:02:25;22.70;;;9.52;;
25207;SDS011;13153;52.316;21.166;2022-11-11T10:05:09;22.00;;;9.82;;
25207;SDS011;13153;52.316;21.166;2022-11-11T10:07:48;23.45;;;9.57;;
25207;SDS011;13153;52.316;21.166;2022-11-11T10:13:11;22.55;;;9.65;;
25207;SDS011;13153;52.316;21.166;2022-11-11T10:24:20;16.63;;;9.20;;
25207;SDS011;13153;52.316;21.166;2022-11-11T10:26:54;18.98;;;9.70;;
25207;SDS011;13153;52.316;21.166;2022-11-11T10:29:21;19.48;;;9.52;;
25207;SDS011;13153;52.316;21.166;2022-11-11T10:31:54;19.65;;;10.07;;
25207;SDS011;13153;52.316;21.166;2022-11-11T10:34:35;22.83;;;10.02;;
25207;SDS011;13153;52.316;21.166;2022-11-11T10:37:02;20.75;;;9.68;;
25207;SDS011;13153;52.316;21.166;2022-11-11T10:39:53;23.70;;;9.95;;
25207;SDS011;13153;52.316;21.166;2022-11-11T10:42:39;21.95;;;9.75;;
25207;SDS011;13153;52.316;21.166;2022-11-11T10:45:08;21.17;;;9.40;;
25207;SDS011;13153;52.316;21.166;2022-11-11T10:47:53;21.98;;;9.38;;
25207;SDS011;13153;52.316;21.166;2022-11-11T10:50:31;16.17;;;8.03;;
25207;SDS011;13153;52.316;21.166;2022-11-11T11:01:34;24.42;;;10.05;;
25207;SDS011;13153;52.316;21.166;2022-11-11T11:04:14;20.10;;;9.23;;
25207;SDS011;13153;52.316;21.166;2022-11-11T11:06:52;21.02;;;8.48;;
25207;SDS011;13153;52.316;21.166;2022-11-11T11:11:59;20.25;;;8.45;;
25207;SDS011;13153;52.316;21.166;2022-11-11T11:14:44;22.83;;;9.30;;
25207;SDS011;13153;52.316;21.166;2022-11-11T11:17:37;21.85;;;9.10;;
25207;SDS011;13153;52.316;21.166;2022-11-11T11:20:18;17.65;;;8.85;;
25207;SDS011;13153;52.316;21.166;2022-11-11T11:22:52;20.30;;;9.45;;
25207;SDS011;13153;52.316;21.166;2022-11-11T11:25:22;21.73;;;9.25;;
25207;SDS011;13153;52.316;21.166;2022-11-11T11:27:50;24.88;;;9.27;;
25207;SDS011;13153;52.316;21.166;2022-11-11T11:30:28;19.90;;;8.93;;
25207;SDS011;13153;52.316;21.166;2022-11-11T11:32:54;21.42;;;9.50;;
25207;SDS011;13153;52.316;21.166;2022-11-11T11:37:57;25.65;;;10.18;;
25207;SDS011;13153;52.316;21.166;2022-11-11T11:40:23;23.77;;;9.13;;
25207;SDS011;13153;52.316;21.166;2022-11-11T11:42:49;19.58;;;8.68;;
25207;SDS011;13153;52.316;21.166;2022-11-11T11:45:27;24.40;;;9.30;;
25207;SDS011;13153;52.316;21.166;2022-11-11T11:48:03;24.15;;;9.45;;
25207;SDS011;13153;52.316;21.166;2022-11-11T11:50:56;18.42;;;8.65;;
25207;SDS011;13153;52.316;21.166;2022-11-11T11:56:17;22.20;;;9.68;;
25207;SDS011;13153;52.316;21.166;2022-11-11T11:58:52;19.00;;;8.18;;
25207;SDS011;13153;52.316;21.166;2022-11-11T12:04:41;20.67;;;8.77;;
25207;SDS011;13153;52.316;21.166;2022-11-11T12:07:15;22.60;;;8.93;;
25207;SDS011;13153;52.316;21.166;2022-11-11T12:21:38;17.25;;;8.30;;
25207;SDS011;13153;52.316;21.166;2022-11-11T12:27:31;16.92;;;9.00;;
25207;SDS011;13153;52.316;21.166;2022-11-11T12:30:33;17.48;;;8.90;;
25207;SDS011;13153;52.316;21.166;2022-11-11T12:42:16;21.52;;;8.77;;
25207;SDS011;13153;52.316;21.166;2022-11-11T12:45:30;17.17;;;7.25;;
25207;SDS011;13153;52.316;21.166;2022-11-11T12:53:46;19.35;;;8.32;;
25207;SDS011;13153;52.316;21.166;2022-11-11T12:56:32;18.50;;;8.20;;
25207;SDS011;13153;52.316;21.166;2022-11-11T13:05:53;21.73;;;8.60;;
25207;SDS011;13153;52.316;21.166;2022-11-11T13:08:42;19.88;;;9.27;;
25207;SDS011;13153;52.316;21.166;2022-11-11T13:17:34;23.50;;;9.07;;
25207;SDS011;13153;52.316;21.166;2022-11-11T13:20:06;18.45;;;8.93;;
25207;SDS011;13153;52.316;21.166;2022-11-11T13:22:59;17.95;;;7.80;;
25207;SDS011;13153;52.316;21.166;2022-11-11T13:25:26;16.70;;;7.95;;
25207;SDS011;13153;52.316;21.166;2022-11-11T13:28:00;18.83;;;8.27;;
25207;SDS011;13153;52.316;21.166;2022-11-11T13:30:44;19.67;;;7.70;;
25207;SDS011;13153;52.316;21.166;2022-11-11T13:33:39;18.65;;;8.00;;
25207;SDS011;13153;52.316;21.166;2022-11-11T13:36:14;15.43;;;7.35;;
25207;SDS011;13153;52.316;21.166;2022-11-11T13:38:45;19.13;;;7.85;;
25207;SDS011;13153;52.316;21.166;2022-11-11T13:41:23;18.15;;;7.53;;
25207;SDS011;13153;52.316;21.166;2022-11-11T13:43:56;18.20;;;7.53;;
25207;SDS011;13153;52.316;21.166;2022-11-11T13:46:34;23.73;;;7.88;;
25207;SDS011;13153;52.316;21.166;2022-11-11T13:49:23;16.40;;;7.43;;
25207;SDS011;13153;52.316;21.166;2022-11-11T13:52:02;17.23;;;7.65;;
25207;SDS011;13153;52.316;21.166;2022-11-11T13:54:47;17.35;;;7.63;;
25207;SDS011;13153;52.316;21.166;2022-11-11T13:57:23;17.35;;;8.45;;
25207;SDS011;13153;52.316;21.166;2022-11-11T13:59:59;17.70;;;8.18;;
25207;SDS011;13153;52.316;21.166;2022-11-11T14:05:41;19.83;;;8.63;;
25207;SDS011;13153;52.316;21.166;2022-11-11T14:08:07;17.55;;;8.60;;
25207;SDS011;13153;52.316;21.166;2022-11-11T14:15:50;22.75;;;8.68;;
25207;SDS011;13153;52.316;21.166;2022-11-11T14:20:44;19.98;;;9.23;;
25207;SDS011;13153;52.316;21.166;2022-11-11T14:28:52;16.33;;;8.70;;
25207;SDS011;13153;52.316;21.166;2022-11-11T14:42:01;19.50;;;9.48;;
25207;SDS011;13153;52.316;21.166;2022-11-11T14:52:29;18.67;;;10.20;;
25207;SDS011;13153;52.316;21.166;2022-11-11T15:03:39;21.10;;;11.10;;
25207;SDS011;13153;52.316;21.166;2022-11-11T15:06:19;23.42;;;10.95;;
25207;SDS011;13153;52.316;21.166;2022-11-11T15:09:00;17.27;;;10.67;;
25207;SDS011;13153;52.316;21.166;2022-11-11T15:12:04;16.70;;;10.88;;
25207;SDS011;13153;52.316;21.166;2022-11-11T15:14:47;21.65;;;11.70;;
25207;SDS011;13153;52.316;21.166;2022-11-11T15:17:35;22.02;;;11.70;;
25207;SDS011;13153;52.316;21.166;2022-11-11T15:26:05;22.50;;;11.83;;
25207;SDS011;13153;52.316;21.166;2022-11-11T15:32:01;24.77;;;12.23;;
25207;SDS011;13153;52.316;21.166;2022-11-11T15:34:40;23.15;;;11.73;;
25207;SDS011;13153;52.316;21.166;2022-11-11T15:37:21;23.48;;;11.63;;
25207;SDS011;13153;52.316;21.166;2022-11-11T15:39:52;30.02;;;13.38;;
25207;SDS011;13153;52.316;21.166;2022-11-11T15:45:02;24.48;;;12.85;;
25207;SDS011;13153;52.316;21.166;2022-11-11T15:47:44;27.40;;;12.48;;
25207;SDS011;13153;52.316;21.166;2022-11-11T15:52:53;22.08;;;13.32;;
25207;SDS011;13153;52.316;21.166;2022-11-11T15:55:30;28.92;;;14.48;;
25207;SDS011;13153;52.316;21.166;2022-11-11T16:00:54;31.85;;;16.60;;
25207;SDS011;13153;52.316;21.166;2022-11-11T16:06:20;26.35;;;16.50;;
25207;SDS011;13153;52.316;21.166;2022-11-11T16:08:48;32.58;;;17.48;;
25207;SDS011;13153;52.316;21.166;2022-11-11T16:11:18;29.17;;;16.02;;
25207;SDS011;13153;52.316;21.166;2022-11-11T16:14:03;25.10;;;15.13;;
25207;SDS011;13153;52.316;21.166;2022-11-11T16:16:30;24.85;;;14.73;;
25207;SDS011;13153;52.316;21.166;2022-11-11T16:19:06;27.00;;;14.95;;
25207;SDS011;13153;52.316;21.166;2022-11-11T16:21:56;26.30;;;15.60;;
25207;SDS011;13153;52.316;21.166;2022-11-11T16:24:36;31.17;;;15.73;;
25207;SDS011;13153;52.316;21.166;2022-11-11T16:27:05;29.27;;;15.57;;
25207;SDS011;13153;52.316;21.166;2022-11-11T16:29:36;28.83;;;15.60;;
25207;SDS011;13153;52.316;21.166;2022-11-11T16:34:48;30.60;;;14.45;;
25207;SDS011;13153;52.316;21.166;2022-11-11T16:37:16;30.38;;;14.15;;
25207;SDS011;13153;52.316;21.166;2022-11-11T16:39:43;26.70;;;14.25;;
25207;SDS011;13153;52.316;21.166;2022-11-11T16:45:00;24.33;;;12.95;;
25207;SDS011;13153;52.316;21.166;2022-11-11T16:52:29;22.13;;;12.18;;
25207;SDS011;13153;52.316;21.166;2022-11-11T16:55:06;26.02;;;12.70;;
25207;SDS011;13153;52.316;21.166;2022-11-11T16:57:37;26.05;;;12.25;;
25207;SDS011;13153;52.316;21.166;2022-11-11T17:00:11;25.88;;;12.32;;
25207;SDS011;13153;52.316;21.166;2022-11-11T17:02:41;23.17;;;11.93;;
25207;SDS011;13153;52.316;21.166;2022-11-11T17:05:07;23.50;;;12.45;;
25207;SDS011;13153;52.316;21.166;2022-11-11T17:07:37;28.50;;;14.48;;
25207;SDS011;13153;52.316;21.166;2022-11-11T17:12:42;24.33;;;13.88;;
25207;SDS011;13153;52.316;21.166;2022-11-11T17:15:10;30.08;;;15.65;;
25207;SDS011;13153;52.316;21.166;2022-11-11T17:17:39;30.15;;;15.13;;
25207;SDS011;13153;52.316;21.166;2022-11-11T17:22:36;26.70;;;12.98;;
25207;SDS011;13153;52.316;21.166;2022-11-11T17:25:02;26.80;;;12.98;;
25207;SDS011;13153;52.316;21.166;2022-11-11T17:27:28;26.90;;;12.43;;
25207;SDS011;13153;52.316;21.166;2022-11-11T17:29:55;24.08;;;11.80;;
25207;SDS011;13153;52.316;21.166;2022-11-11T17:32:21;23.40;;;11.82;;
25207;SDS011;13153;52.316;21.166;2022-11-11T17:34:47;22.17;;;11.20;;
25207;SDS011;13153;52.316;21.166;2022-11-11T17:37:13;22.48;;;11.50;;
25207;SDS011;13153;52.316;21.166;2022-11-11T17:39:39;24.20;;;11.20;;